createdAt,value
2018-10-18T00:00:00.720Z,98.10
2018-10-18T00:02:30.041Z,98.40
2018-10-18T00:04:59.303Z,98.20
2018-10-18T00:07:29.291Z,98.70
2018-10-18T00:09:58.756Z,99.10
2018-10-18T00:12:28.509Z,99.04
2018-10-18T00:14:57.912Z,99.37
2018-10-18T00:17:32.360Z,99.13
2018-10-18T00:20:01.999Z,99.60
2018-10-18T00:22:32.018Z,99.55
2018-10-18T00:25:01.417Z,99.24
2018-10-18T00:27:30.748Z,99.81
2018-10-18T00:30:00.413Z,99.73
2018-10-18T00:32:30.091Z,100.00
2018-10-18T00:34:59.611Z,100.00
2018-10-18T00:37:29.148Z,100.00
2018-10-18T00:39:58.851Z,100.00
2018-10-18T00:42:28.899Z,100.00
2018-10-18T00:44:59.197Z,100.00
2018-10-18T00:47:29.078Z,100.00
2018-10-18T00:49:58.498Z,100.00
2018-10-18T00:52:29.226Z,100.00
2018-10-18T00:54:58.722Z,100.00
2018-10-18T00:57:28.151Z,100.00
2018-10-18T00:59:57.495Z,100.00
2018-10-18T01:02:28.145Z,100.00
2018-10-18T01:04:57.800Z,100.00
2018-10-18T01:07:27.316Z,100.00
2018-10-18T01:09:56.837Z,100.00
2018-10-18T01:12:28.712Z,99.79
2018-10-18T01:14:58.832Z,100.00
2018-10-18T01:17:28.705Z,100.00
2018-10-18T01:19:59.621Z,100.00
2018-10-18T01:22:29.193Z,99.78
2018-10-18T01:25:00.233Z,99.51
2018-10-18T01:27:30.090Z,99.66
2018-10-18T01:29:59.930Z,99.76
2018-10-18T01:32:29.560Z,100.00
2018-10-18T01:35:18.692Z,100.00
2018-10-18T01:37:50.611Z,100.00
2018-10-18T01:40:19.899Z,100.00
2018-10-18T01:42:49.390Z,100.00
2018-10-18T01:45:19.019Z,99.92
2018-10-18T01:47:48.439Z,100.00
2018-10-18T01:50:18.316Z,100.00
2018-10-18T01:52:47.932Z,100.00
2018-10-18T01:55:17.385Z,100.00
2018-10-18T01:57:46.921Z,100.00
2018-10-18T02:00:16.411Z,100.00
2018-10-18T02:02:46.278Z,100.00
2018-10-18T02:05:17.695Z,100.00
2018-10-18T02:07:47.996Z,100.00
2018-10-18T02:10:25.821Z,100.00
2018-10-18T02:12:56.589Z,100.00
2018-10-18T02:15:48.033Z,100.00
2018-10-18T02:18:39.607Z,100.00
2018-10-18T02:21:11.910Z,100.00
2018-10-18T02:23:43.972Z,100.00
2018-10-18T02:26:13.476Z,100.00
2018-10-18T02:28:43.934Z,100.00
2018-10-18T02:31:13.479Z,100.00
2018-10-18T02:33:42.973Z,100.00
2018-10-18T02:36:12.484Z,100.00
2018-10-18T02:38:42.059Z,100.00
2018-10-18T02:41:11.541Z,100.00
2018-10-18T02:43:42.425Z,100.00
2018-10-18T02:46:11.825Z,100.00
2018-10-18T02:48:42.415Z,100.00
2018-10-18T02:51:13.995Z,99.95
2018-10-18T02:53:45.541Z,100.00
2018-10-18T02:56:15.575Z,99.73
2018-10-18T02:58:45.056Z,100.00
2018-10-18T03:01:14.854Z,99.79
2018-10-18T03:03:45.411Z,100.00
2018-10-18T03:06:14.907Z,100.00
2018-10-18T03:08:44.620Z,100.00
2018-10-18T03:11:14.065Z,100.00
2018-10-18T03:13:43.491Z,100.00
2018-10-18T03:16:13.056Z,100.00
2018-10-18T03:18:42.371Z,100.00
2018-10-18T03:21:12.472Z,100.00
2018-10-18T03:23:42.270Z,100.00
2018-10-18T03:26:13.782Z,100.00
2018-10-18T03:28:43.279Z,100.00
2018-10-18T03:31:13.405Z,100.00
2018-10-18T03:33:43.192Z,100.00
2018-10-18T03:36:13.361Z,100.00
2018-10-18T03:38:43.436Z,100.00
2018-10-18T03:41:13.206Z,100.00
2018-10-18T03:43:43.002Z,100.00
2018-10-18T03:46:14.075Z,100.00
2018-10-18T03:48:43.742Z,100.00
2018-10-18T03:51:16.327Z,100.00
2018-10-18T03:53:45.790Z,100.00
2018-10-18T03:56:15.373Z,100.00
2018-10-18T03:58:44.836Z,100.00
2018-10-18T04:01:14.837Z,100.00
2018-10-18T04:03:44.442Z,100.00
2018-10-18T04:06:15.964Z,100.00
2018-10-18T04:08:45.977Z,100.00
2018-10-18T04:11:16.569Z,100.00
2018-10-18T04:13:46.249Z,99.64
2018-10-18T04:16:16.548Z,99.81
2018-10-18T04:18:46.903Z,99.45
2018-10-18T04:21:16.338Z,99.43
2018-10-18T04:23:45.974Z,99.01
2018-10-18T04:26:15.471Z,98.34
2018-10-18T04:28:44.839Z,98.76
2018-10-18T04:31:21.493Z,98.15
2018-10-18T04:33:51.032Z,97.89
2018-10-18T04:36:20.621Z,98.11
2018-10-18T04:38:49.929Z,97.58
2018-10-18T04:41:19.426Z,97.79
2018-10-18T04:43:49.102Z,97.22
2018-10-18T04:46:19.860Z,97.06
2018-10-18T04:48:49.551Z,97.20
2018-10-18T04:51:20.171Z,96.99
2018-10-18T04:53:50.066Z,97.22
2018-10-18T04:56:19.594Z,96.46
2018-10-18T04:58:49.990Z,96.25
2018-10-18T05:01:19.668Z,96.12
2018-10-18T05:03:49.326Z,96.30
2018-10-18T05:06:19.074Z,95.86
2018-10-18T05:08:48.386Z,95.85
2018-10-18T05:11:17.756Z,96.07
2018-10-18T05:13:47.148Z,96.02
2018-10-18T05:16:16.565Z,96.25
2018-10-18T05:18:46.065Z,96.44
2018-10-18T05:21:15.592Z,96.93
2018-10-18T05:23:45.195Z,97.31
2018-10-18T05:26:15.870Z,97.37
2018-10-18T05:28:45.984Z,97.69
2018-10-18T05:31:15.655Z,98.05
2018-10-18T05:33:45.419Z,98.37
2018-10-18T05:36:14.948Z,98.49
2018-10-18T05:38:44.273Z,99.68
2018-10-18T05:41:13.801Z,100.00
2018-10-18T05:43:43.226Z,100.00
2018-10-18T05:46:13.353Z,100.00
2018-10-18T05:48:42.919Z,100.00
2018-10-18T05:51:12.719Z,99.22
2018-10-18T05:53:44.135Z,99.27
2018-10-18T05:56:13.591Z,99.13
2018-10-18T05:58:43.234Z,98.87
2018-10-18T06:01:12.940Z,99.11
2018-10-18T06:03:42.595Z,98.48
2018-10-18T06:06:12.003Z,98.22
2018-10-18T06:08:41.963Z,98.23
2018-10-18T06:11:30.488Z,97.99
2018-10-18T06:14:01.105Z,97.65
2018-10-18T06:16:31.202Z,97.12
2018-10-18T06:19:01.148Z,96.98
2018-10-18T06:21:30.702Z,97.43
2018-10-18T06:24:01.169Z,96.95
2018-10-18T06:26:30.726Z,97.02
2018-10-18T06:29:00.398Z,96.87
2018-10-18T06:31:30.954Z,96.75
2018-10-18T06:34:00.746Z,96.58
2018-10-18T06:36:30.238Z,96.69
2018-10-18T06:38:59.664Z,96.48
2018-10-18T06:41:29.179Z,96.35
2018-10-18T06:43:59.166Z,95.80
2018-10-18T06:46:28.730Z,96.07
2018-10-18T06:48:59.444Z,95.81
2018-10-18T06:51:28.872Z,95.93
2018-10-18T06:53:58.491Z,95.96
2018-10-18T06:56:27.862Z,95.62
2018-10-18T06:58:57.859Z,95.57
2018-10-18T07:01:27.286Z,95.48
2018-10-18T07:03:56.855Z,95.56
2018-10-18T07:06:26.861Z,95.38
2018-10-18T07:08:56.616Z,94.73
2018-10-18T07:11:27.008Z,94.72
2018-10-18T07:13:56.812Z,94.35
2018-10-18T07:16:27.662Z,93.73
2018-10-18T07:18:58.483Z,93.50
2018-10-18T07:21:28.020Z,92.88
2018-10-18T07:23:58.575Z,92.44
2018-10-18T07:26:30.185Z,92.18
2018-10-18T07:29:00.847Z,93.13
2018-10-18T07:31:30.292Z,93.48
2018-10-18T07:33:59.995Z,92.91
2018-10-18T07:36:29.389Z,93.16
2018-10-18T07:38:58.854Z,92.59
2018-10-18T07:41:28.469Z,93.22
2018-10-18T07:43:58.528Z,93.49
2018-10-18T07:46:27.979Z,93.05
2018-10-18T07:48:58.415Z,93.20
2018-10-18T07:51:27.858Z,92.61
2018-10-18T07:53:57.687Z,92.14
2018-10-18T07:56:28.612Z,91.25
2018-10-18T07:58:58.924Z,90.50
2018-10-18T08:01:29.063Z,90.36
2018-10-18T08:03:58.818Z,89.60
2018-10-18T08:06:28.928Z,89.61
2018-10-18T08:08:58.646Z,89.99
2018-10-18T08:11:28.345Z,90.13
2018-10-18T08:13:57.791Z,89.91
2018-10-18T08:16:27.533Z,89.65
2018-10-18T08:18:57.476Z,90.18
2018-10-18T08:21:27.080Z,89.89
2018-10-18T08:23:56.828Z,89.65
2018-10-18T08:26:26.350Z,90.01
2018-10-18T08:28:55.889Z,89.63
2018-10-18T08:31:25.466Z,90.19
2018-10-18T08:33:55.269Z,90.11
2018-10-18T08:36:24.952Z,89.35
2018-10-18T08:38:54.561Z,89.48
2018-10-18T08:41:26.175Z,89.55
2018-10-18T08:43:55.798Z,88.09
2018-10-18T08:46:25.160Z,88.24
2018-10-18T08:48:55.117Z,87.86
2018-10-18T08:51:24.778Z,88.17
2018-10-18T08:53:54.088Z,88.01
2018-10-18T08:56:23.778Z,87.87
2018-10-18T08:58:53.959Z,87.85
2018-10-18T09:01:24.536Z,87.28
2018-10-18T09:03:54.237Z,86.86
2018-10-18T09:06:24.212Z,86.16
2018-10-18T09:08:54.007Z,85.60
2018-10-18T09:11:23.495Z,85.96
2018-10-18T09:13:52.973Z,85.86
2018-10-18T09:16:23.567Z,85.51
2018-10-18T09:18:53.053Z,85.18
2018-10-18T09:21:23.009Z,85.24
2018-10-18T09:23:53.672Z,84.54
2018-10-18T09:26:22.895Z,83.95
2018-10-18T09:28:52.326Z,83.09
2018-10-18T09:31:21.750Z,83.10
2018-10-18T09:33:51.706Z,82.00
2018-10-18T09:36:21.063Z,81.94
2018-10-18T09:38:51.066Z,81.85
2018-10-18T09:41:22.775Z,81.36
2018-10-18T09:43:57.356Z,80.14
2018-10-18T09:46:27.177Z,79.96
2018-10-18T09:48:56.598Z,79.51
2018-10-18T09:51:26.221Z,79.58
2018-10-18T09:53:56.060Z,80.40
2018-10-18T09:56:25.468Z,80.42
2018-10-18T09:58:54.940Z,80.66
2018-10-18T10:01:29.567Z,80.48
2018-10-18T10:03:59.154Z,80.29
2018-10-18T10:06:29.304Z,79.93
2018-10-18T10:08:59.005Z,79.87
2018-10-18T10:11:28.554Z,79.99
2018-10-18T10:13:59.708Z,79.08
2018-10-18T10:16:29.316Z,78.69
2018-10-18T10:18:58.790Z,78.83
2018-10-18T10:21:28.143Z,77.55
2018-10-18T10:23:57.638Z,77.78
2018-10-18T10:26:27.143Z,77.69
2018-10-18T10:28:56.725Z,77.62
2018-10-18T10:31:27.446Z,77.00
2018-10-18T10:33:57.012Z,75.90
2018-10-18T10:36:27.470Z,74.91
2018-10-18T10:38:56.865Z,75.38
2018-10-18T10:41:26.265Z,74.90
2018-10-18T10:43:55.973Z,74.65
2018-10-18T10:46:25.567Z,73.96
2018-10-18T10:48:54.994Z,73.48
2018-10-18T10:51:24.683Z,71.70
2018-10-18T10:53:54.049Z,70.68
2018-10-18T10:56:23.851Z,70.60
2018-10-18T10:58:53.439Z,69.37
2018-10-18T11:01:24.458Z,69.02
2018-10-18T11:03:57.340Z,68.58
2018-10-18T11:06:26.887Z,65.96
2018-10-18T11:08:58.213Z,66.39
2018-10-18T11:11:27.644Z,65.55
2018-10-18T11:13:57.128Z,65.69
2018-10-18T11:16:26.486Z,66.14
2018-10-18T11:18:55.907Z,65.90
2018-10-18T11:21:26.484Z,65.07
2018-10-18T11:23:55.971Z,65.19
2018-10-18T11:26:25.324Z,65.65
2018-10-18T11:28:54.852Z,66.25
2018-10-18T11:31:24.369Z,65.22
2018-10-18T11:33:54.273Z,64.26
2018-10-18T11:36:30.693Z,63.97
2018-10-18T11:39:00.175Z,63.50
2018-10-18T11:41:29.843Z,62.22
2018-10-18T11:43:59.298Z,60.83
2018-10-18T11:46:30.305Z,59.99
2018-10-18T11:48:59.774Z,58.81
2018-10-18T11:51:29.187Z,58.01
2018-10-18T11:53:58.699Z,56.28
2018-10-18T11:56:28.186Z,53.67
2018-10-18T11:58:57.617Z,53.98
2018-10-18T12:01:27.121Z,55.53
2018-10-18T12:03:57.284Z,55.53
2018-10-18T12:06:26.861Z,56.15
2018-10-18T12:08:56.370Z,55.73
2018-10-18T12:11:25.987Z,53.69
2018-10-18T12:13:56.919Z,48.87
2018-10-18T12:16:29.598Z,47.54
2018-10-18T12:19:00.533Z,48.18
2018-10-18T12:21:30.136Z,49.24
2018-10-18T12:24:00.534Z,50.07
2018-10-18T12:26:30.452Z,51.18
2018-10-18T12:29:00.079Z,52.54
2018-10-18T12:31:29.740Z,52.60
2018-10-18T12:33:59.917Z,53.99
2018-10-18T12:36:31.451Z,55.53
2018-10-18T12:39:01.010Z,56.25
2018-10-18T12:41:30.904Z,54.57
2018-10-18T12:44:02.574Z,51.72
2018-10-18T12:46:33.194Z,52.49
2018-10-18T12:49:02.582Z,52.62
2018-10-18T12:51:34.078Z,53.33
2018-10-18T12:54:04.677Z,54.05
2018-10-18T12:56:34.115Z,54.62
2018-10-18T12:59:03.478Z,54.64
2018-10-18T13:01:32.874Z,54.95
2018-10-18T13:04:02.918Z,54.67
2018-10-18T13:06:32.532Z,54.79
2018-10-18T13:09:02.433Z,53.18
2018-10-18T13:11:32.906Z,49.18
2018-10-18T13:14:03.445Z,48.78
2018-10-18T13:16:32.879Z,49.26
2018-10-18T13:19:02.644Z,51.14
2018-10-18T13:21:35.859Z,51.37
2018-10-18T13:24:05.535Z,52.18
2018-10-18T13:26:35.624Z,53.03
2018-10-18T13:29:06.398Z,53.97
2018-10-18T13:31:35.870Z,54.52
2018-10-18T13:34:06.898Z,54.52
2018-10-18T13:36:36.569Z,55.19
2018-10-18T13:39:10.115Z,56.00
2018-10-18T13:41:39.985Z,56.59
2018-10-18T13:44:09.456Z,56.41
2018-10-18T13:46:39.382Z,56.32
2018-10-18T13:49:08.907Z,58.10
2018-10-18T13:51:38.319Z,59.83
2018-10-18T13:54:07.763Z,61.13
2018-10-18T13:56:37.602Z,61.22
2018-10-18T13:59:17.806Z,61.87
2018-10-18T14:01:47.163Z,62.81
2018-10-18T14:04:16.712Z,63.60
2018-10-18T14:06:46.066Z,63.39
2018-10-18T14:09:16.136Z,63.97
2018-10-18T14:11:45.648Z,64.59
2018-10-18T14:14:15.528Z,64.47
2018-10-18T14:16:45.066Z,64.33
2018-10-18T14:19:16.492Z,64.84
2018-10-18T14:21:46.148Z,65.64
2018-10-18T14:24:15.907Z,66.76
2018-10-18T14:26:45.331Z,67.11
2018-10-18T14:29:16.631Z,67.03
2018-10-18T14:31:46.013Z,67.32
2018-10-18T14:34:17.078Z,67.61
2018-10-18T14:36:46.686Z,68.19
2018-10-18T14:39:15.954Z,67.64
2018-10-18T14:41:45.490Z,67.41
2018-10-18T14:44:16.240Z,67.15
2018-10-18T14:46:46.067Z,65.88
2018-10-18T14:49:15.431Z,66.35
2018-10-18T14:51:44.732Z,66.26
2018-10-18T14:54:14.264Z,66.30
2018-10-18T14:56:43.732Z,66.28
2018-10-18T14:59:14.275Z,65.67
2018-10-18T15:01:44.497Z,65.74
2018-10-18T15:04:14.523Z,65.86
2018-10-18T15:06:44.569Z,65.93
2018-10-18T15:09:14.716Z,66.12
2018-10-18T15:11:44.532Z,66.78
2018-10-18T15:14:14.304Z,66.66
2018-10-18T15:16:43.966Z,67.02
2018-10-18T15:19:13.474Z,67.20
2018-10-18T15:21:43.621Z,66.94
2018-10-18T15:24:13.403Z,66.78
2018-10-18T15:26:43.197Z,66.88
2018-10-18T15:29:12.716Z,66.91
2018-10-18T15:31:42.361Z,66.93
2018-10-18T15:34:11.967Z,67.15
2018-10-18T15:36:41.483Z,67.34
2018-10-18T15:39:12.374Z,67.59
2018-10-18T15:41:42.531Z,67.77
2018-10-18T15:44:12.654Z,67.87
2018-10-18T15:46:42.134Z,68.21
2018-10-18T15:49:12.678Z,68.71
2018-10-18T15:51:43.022Z,68.89
2018-10-18T15:54:12.558Z,69.08
2018-10-18T15:56:41.777Z,69.79
2018-10-18T15:59:11.283Z,69.58
2018-10-18T16:01:41.715Z,69.67
2018-10-18T16:04:12.759Z,69.28
2018-10-18T16:06:42.472Z,69.74
2018-10-18T16:09:13.740Z,70.07
2018-10-18T16:11:43.179Z,71.10
2018-10-18T16:14:12.915Z,72.10
2018-10-18T16:16:42.792Z,72.93
2018-10-18T16:19:14.526Z,72.75
2018-10-18T16:21:43.917Z,73.52
2018-10-18T16:24:13.736Z,73.89
2018-10-18T16:26:43.422Z,74.90
2018-10-18T16:29:12.931Z,75.75
2018-10-18T16:31:42.330Z,76.12
2018-10-18T16:34:11.685Z,76.90
2018-10-18T16:36:41.182Z,77.88
2018-10-18T16:39:12.641Z,78.06
2018-10-18T16:41:43.221Z,78.79
2018-10-18T16:44:12.754Z,79.50
2018-10-18T16:46:42.420Z,79.79
2018-10-18T16:49:12.185Z,80.16
2018-10-18T16:51:41.790Z,80.18
2018-10-18T16:54:11.140Z,79.87
2018-10-18T16:56:40.514Z,80.74
2018-10-18T16:59:10.013Z,80.71
2018-10-18T17:01:39.501Z,80.62
2018-10-18T17:04:08.977Z,80.97
2018-10-18T17:06:38.157Z,81.07
2018-10-18T17:09:09.768Z,81.02
2018-10-18T17:11:39.709Z,81.32
2018-10-18T17:14:10.045Z,81.57
2018-10-18T17:16:39.706Z,81.65
2018-10-18T17:19:09.624Z,81.26
2018-10-18T17:21:39.747Z,81.78
2018-10-18T17:24:10.904Z,82.10
2018-10-18T17:26:40.759Z,82.19
2018-10-18T17:29:10.819Z,82.37
2018-10-18T17:31:40.326Z,82.26
2018-10-18T17:34:10.163Z,82.36
2018-10-18T17:36:39.957Z,82.39
2018-10-18T17:39:11.385Z,82.64
2018-10-18T17:41:41.223Z,82.80
2018-10-18T17:44:11.172Z,83.44
2018-10-18T17:46:41.042Z,83.72
2018-10-18T17:49:10.581Z,84.13
2018-10-18T17:51:39.948Z,84.01
2018-10-18T17:54:09.808Z,83.83
2018-10-18T17:56:39.522Z,84.23
2018-10-18T17:59:09.282Z,84.45
2018-10-18T18:01:39.099Z,84.45
2018-10-18T18:04:09.300Z,83.80
2018-10-18T18:06:38.947Z,84.31
2018-10-18T18:09:08.220Z,84.33
2018-10-18T18:11:37.735Z,84.14
2018-10-18T18:14:07.466Z,84.19
2018-10-18T18:16:37.495Z,84.30
2018-10-18T18:19:07.264Z,84.24
2018-10-18T18:21:37.531Z,84.24
2018-10-18T18:24:07.092Z,84.42
2018-10-18T18:26:45.219Z,83.71
2018-10-18T18:29:06.751Z,83.45
2018-10-18T18:31:36.226Z,83.79
2018-10-18T18:34:05.957Z,84.14
2018-10-18T18:36:35.512Z,83.65
2018-10-18T18:39:06.919Z,83.04
2018-10-18T18:41:36.326Z,83.26
2018-10-18T18:44:06.418Z,83.33
2018-10-18T18:46:35.889Z,83.26
2018-10-18T18:49:05.627Z,82.88
2018-10-18T18:51:35.381Z,82.73
2018-10-18T18:54:05.138Z,82.85
2018-10-18T18:56:34.747Z,83.51
2018-10-18T18:59:04.876Z,83.14
2018-10-18T19:01:34.827Z,82.39
2018-10-18T19:04:04.289Z,82.63
2018-10-18T19:06:33.991Z,83.14
2018-10-18T19:09:05.915Z,83.51
2018-10-18T19:11:35.662Z,84.53
2018-10-18T19:14:05.939Z,85.33
2018-10-18T19:16:35.714Z,85.56
2018-10-18T19:19:05.704Z,86.79
2018-10-18T19:21:35.687Z,87.78
2018-10-18T19:24:05.518Z,88.65
2018-10-18T19:26:35.394Z,88.92
2018-10-18T19:29:05.598Z,89.10
2018-10-18T19:31:35.141Z,89.00
2018-10-18T19:34:04.628Z,89.17
2018-10-18T19:36:34.353Z,88.20
2018-10-18T19:39:05.156Z,88.09
2018-10-18T19:41:34.682Z,86.85
2018-10-18T19:44:04.434Z,87.10
2018-10-18T19:46:34.531Z,85.61
2018-10-18T19:49:04.412Z,85.92
2018-10-18T19:51:35.046Z,85.36
2018-10-18T19:54:04.512Z,85.28
2018-10-18T19:56:34.270Z,84.39
2018-10-18T19:59:03.699Z,85.06
2018-10-18T20:01:33.359Z,84.67
2018-10-18T20:04:03.383Z,84.91
2018-10-18T20:06:33.187Z,84.35
2018-10-18T20:09:03.600Z,84.61
2018-10-18T20:11:33.414Z,84.61
2018-10-18T20:14:02.847Z,84.34
2018-10-18T20:16:32.941Z,84.05
2018-10-18T20:19:02.669Z,84.05
2018-10-18T20:21:32.581Z,83.89
2018-10-18T20:24:02.125Z,83.85
2018-10-18T20:26:31.881Z,83.92
2018-10-18T20:29:01.385Z,84.61
2018-10-18T20:31:31.091Z,84.42
2018-10-18T20:34:00.460Z,83.59
2018-10-18T20:36:31.032Z,83.94
2018-10-18T20:39:00.953Z,84.26
2018-10-18T20:41:30.672Z,84.17
2018-10-18T20:44:00.220Z,84.10
2018-10-18T20:46:30.836Z,83.43
2018-10-18T20:49:00.608Z,83.60
2018-10-18T20:51:31.443Z,82.83
2018-10-18T20:54:01.267Z,82.57
2018-10-18T20:56:32.097Z,82.03
2018-10-18T20:59:01.565Z,82.37
2018-10-18T21:01:31.510Z,82.63
2018-10-18T21:04:01.259Z,82.22
2018-10-18T21:06:34.049Z,82.51
2018-10-18T21:09:11.072Z,81.80
2018-10-18T21:11:41.242Z,81.50
2018-10-18T21:14:10.796Z,81.11
2018-10-18T21:16:40.226Z,81.18
2018-10-18T21:19:09.665Z,81.28
2018-10-18T21:21:39.330Z,81.55
2018-10-18T21:24:08.996Z,81.29
2018-10-18T21:26:38.363Z,81.22
2018-10-18T21:29:08.659Z,81.20
2018-10-18T21:31:38.060Z,81.39
2018-10-18T21:34:07.595Z,81.42
2018-10-18T21:36:37.595Z,81.73
2018-10-18T21:39:08.126Z,81.78
2018-10-18T21:41:37.947Z,82.10
2018-10-18T21:44:07.299Z,82.05
2018-10-18T21:46:37.049Z,82.30
2018-10-18T21:49:06.579Z,82.83
2018-10-18T21:51:36.256Z,82.80
2018-10-18T21:54:06.874Z,82.61
2018-10-18T21:56:36.463Z,83.18
2018-10-18T21:59:06.198Z,83.00
2018-10-18T22:01:35.606Z,83.00
2018-10-18T22:04:05.186Z,83.37
2018-10-18T22:06:34.926Z,83.72
2018-10-18T22:09:06.100Z,83.64
2018-10-18T22:11:35.959Z,83.68
2018-10-18T22:14:06.327Z,84.33
2018-10-18T22:16:36.324Z,83.77
2018-10-18T22:19:06.920Z,84.26
2018-10-18T22:21:36.703Z,84.63
2018-10-18T22:24:06.886Z,84.34
2018-10-18T22:26:36.186Z,84.16
2018-10-18T22:29:06.124Z,84.05
2018-10-18T22:31:35.812Z,83.70
2018-10-18T22:34:05.312Z,83.99
2018-10-18T22:36:34.906Z,84.10
2018-10-18T22:39:07.663Z,84.33
2018-10-18T22:41:37.213Z,84.57
2018-10-18T22:44:07.848Z,84.41
2018-10-18T22:46:37.215Z,84.61
2018-10-18T22:49:07.768Z,84.58
2018-10-18T22:51:37.265Z,84.98
2018-10-18T22:54:07.962Z,84.89
2018-10-18T22:56:37.496Z,85.01
2018-10-18T22:59:06.976Z,85.21
2018-10-18T23:01:36.697Z,85.28
2018-10-18T23:04:06.486Z,85.11
2018-10-18T23:06:35.982Z,85.56
2018-10-18T23:09:08.677Z,85.36
2018-10-18T23:11:38.046Z,85.20
2018-10-18T23:14:10.201Z,85.24
2018-10-18T23:16:40.148Z,85.69
2018-10-18T23:19:10.518Z,85.09
2018-10-18T23:21:40.121Z,85.28
2018-10-18T23:24:10.236Z,85.63
2018-10-18T23:26:39.776Z,85.21
2018-10-18T23:29:10.607Z,85.04
2018-10-18T23:31:39.878Z,85.51
2018-10-18T23:34:09.384Z,85.61
2018-10-18T23:36:38.905Z,86.11
2018-10-18T23:39:09.787Z,85.72
2018-10-18T23:41:39.120Z,85.91
2018-10-18T23:44:08.733Z,85.89
2018-10-18T23:46:38.275Z,85.69
2018-10-18T23:49:07.652Z,85.77
2018-10-18T23:51:37.253Z,85.38
2018-10-18T23:54:07.050Z,85.42
2018-10-18T23:56:37.084Z,85.39
2018-10-18T23:59:08.137Z,84.61
